Time;durP1;ratioP1;P1;durP2;ratioP2;P2;SDS_P1;SDS_P2;PMS_P1;PMS_P2;Temp;Humidity;BMP_temperature;BMP_pressure;BME280_temperature;BME280_humidity;BME280_pressure;Samples;Min_cycle;Max_cycle;Signal;HPM_P1;HPM_P2
2023/09/17 00:00:30;;;;;;;4.30;4.00;;;;;;;15.14;100.00;101369.81;4994541;28;20173;-48
2023/09/17 00:02:55;;;;;;;4.78;4.38;;;;;;;15.09;100.00;101377.28;4994545;28;20680;-47
2023/09/17 00:05:22;;;;;;;4.85;4.40;;;;;;;15.08;100.00;101372.81;4993107;28;20169;-48
2023/09/17 00:07:47;;;;;;;4.53;4.13;;;;;;;15.03;100.00;101375.75;4994522;28;20279;-47
2023/09/17 00:10:13;;;;;;;4.85;4.40;;;;;;;14.98;100.00;101374.22;4994369;28;20205;-51
2023/09/17 00:12:38;;;;;;;5.38;4.25;;;;;;;14.93;100.00;101365.47;4994411;28;20854;-49
2023/09/17 00:15:05;;;;;;;5.15;4.38;;;;;;;14.79;100.00;101371.53;4994335;28;20198;-47
2023/09/17 00:17:31;;;;;;;4.80;4.40;;;;;;;14.68;100.00;101363.94;4994341;28;20170;-48
2023/09/17 00:19:56;;;;;;;4.90;4.50;;;;;;;14.57;100.00;101377.91;4994316;28;20177;-48
2023/09/17 00:22:22;;;;;;;5.13;4.72;;;;;;;14.53;100.00;101376.28;4994123;28;20192;-51
2023/09/17 00:24:47;;;;;;;5.30;4.90;;;;;;;14.48;100.00;101370.22;4994094;28;20165;-49
2023/09/17 00:27:13;;;;;;;5.18;4.70;;;;;;;14.52;100.00;101369.16;4993997;28;20193;-49
2023/09/17 00:29:38;;;;;;;8.07;5.38;;;;;;;14.41;100.00;101368.75;4994065;28;20228;-48
2023/09/17 00:32:04;;;;;;;5.55;5.03;;;;;;;14.36;100.00;101373.47;4993961;28;20293;-49
2023/09/17 00:34:29;;;;;;;5.30;4.80;;;;;;;14.51;100.00;101372.78;4992611;28;20252;-48
2023/09/17 00:36:56;;;;;;;6.75;5.13;;;;;;;14.46;100.00;101374.81;4992451;28;20208;-50
2023/09/17 00:39:22;;;;;;;5.63;4.95;;;;;;;14.35;100.00;101372.59;4992581;28;20181;-49
2023/09/17 00:41:48;;;;;;;4.90;4.50;;;;;;;14.53;100.00;101370.88;4993828;28;20243;-48
2023/09/17 00:44:13;;;;;;;4.35;4.05;;;;;;;14.58;100.00;101373.41;4993877;28;20170;-46
2023/09/17 00:46:39;;;;;;;5.15;4.75;;;;;;;14.49;100.00;101355.78;4993822;28;20177;-47
2023/09/17 00:49:12;;;;;;;5.57;5.07;;;;;;;14.38;100.00;101361.66;4992333;28;20166;-47
2023/09/17 00:51:38;;;;;;;5.38;4.88;;;;;;;14.40;100.00;101361.59;4993918;28;20673;-47
2023/09/17 00:54:04;;;;;;;5.53;5.13;;;;;;;14.37;100.00;101361.75;4993539;28;20174;-47
2023/09/17 00:56:30;;;;;;;5.90;5.40;;;;;;;14.34;100.00;101361.88;4993440;28;20576;-48
2023/09/17 00:58:56;;;;;;;5.15;4.63;;;;;;;14.41;100.00;101369.63;4992475;28;20675;-46
2023/09/17 01:01:21;;;;;;;5.47;5.00;;;;;;;14.35;100.00;101364.50;4993499;28;20208;-47
2023/09/17 01:03:48;;;;;;;5.78;5.13;;;;;;;14.30;100.00;101357.56;4993313;28;20278;-48
2023/09/17 01:06:13;;;;;;;5.65;4.70;;;;;;;14.38;100.00;101367.06;4993400;28;20170;-48
2023/09/17 01:08:40;;;;;;;6.47;4.97;;;;;;;14.21;100.00;101362.44;4993347;28;20185;-46
2023/09/17 01:11:07;;;;;;;9.25;5.20;;;;;;;14.16;100.00;101364.47;4991782;28;20199;-48
2023/09/17 01:13:39;;;;;;;4.75;4.35;;;;;;;14.32;100.00;101359.28;4993213;28;20235;-46
2023/09/17 01:16:05;;;;;;;5.50;4.97;;;;;;;14.24;100.00;101358.75;4993294;28;20181;-46
2023/09/17 01:18:32;;;;;;;4.72;4.40;;;;;;;14.26;100.00;101364.94;4993286;28;20288;-47
2023/09/17 01:21:22;;;;;;;5.55;4.53;;;;;;;14.31;100.00;101370.13;4993099;28;20196;-46
2023/09/17 01:24:11;;;;;;;4.50;4.20;;;;;;;14.30;100.00;101352.19;4993427;28;20181;-49
2023/09/17 01:26:39;;;;;;;6.70;6.15;;;;;;;13.80;100.00;101375.03;4993310;28;20612;-48
2023/09/17 01:29:05;;;;;;;6.18;5.68;;;;;;;13.75;100.00;101361.78;4992999;28;20185;-48
2023/09/17 01:31:30;;;;;;;5.95;5.45;;;;;;;13.86;100.00;101369.38;4991431;28;20197;-47
2023/09/17 01:33:56;;;;;;;5.88;5.38;;;;;;;13.89;100.00;101374.66;4993087;28;20588;-47
2023/09/17 01:36:38;;;;;;;6.47;5.97;;;;;;;13.78;100.00;101376.94;4991561;28;20275;-49
2023/09/17 01:39:14;;;;;;;7.22;6.05;;;;;;;13.79;100.00;101381.34;4992833;28;20212;-51
2023/09/17 01:41:42;;;;;;;5.65;5.10;;;;;;;13.89;100.00;101380.03;4992688;28;20698;-50
2023/09/17 01:44:09;;;;;;;6.47;5.82;;;;;;;13.77;100.00;101378.75;4991372;28;20245;-50
2023/09/17 01:46:36;;;;;;;6.95;6.22;;;;;;;13.85;100.00;101373.03;4992884;28;20244;-47
2023/09/17 01:49:03;;;;;;;5.88;5.28;;;;;;;13.87;100.00;101373.84;4992751;28;20249;-46
2023/09/17 01:51:30;;;;;;;6.03;5.43;;;;;;;13.85;100.00;101373.03;4991219;28;20227;-50
2023/09/17 01:53:56;;;;;;;5.60;4.90;;;;;;;13.93;100.00;101375.41;4992911;28;20533;-46
2023/09/17 01:56:21;;;;;;;5.72;5.22;;;;;;;13.98;100.00;101384.16;4990960;28;20200;-51
2023/09/17 01:58:47;;;;;;;5.20;4.70;;;;;;;13.99;100.00;101378.69;4990349;28;20173;-48
2023/09/17 02:01:13;;;;;;;6.85;5.93;;;;;;;13.87;100.00;101372.97;4990843;28;20722;-47
2023/09/17 02:03:39;;;;;;;6.15;5.40;;;;;;;13.85;100.00;101378.41;4992435;28;20188;-48
2023/09/17 02:06:05;;;;;;;7.10;6.40;;;;;;;13.90;100.00;101378.22;4992340;28;20173;-47
2023/09/17 02:08:30;;;;;;;6.07;5.35;;;;;;;14.00;100.00;101376.88;4990974;28;20181;-47
2023/09/17 02:10:56;;;;;;;6.10;5.57;;;;;;;14.00;100.00;101377.75;5007189;28;20197;-48
2023/09/17 02:13:22;;;;;;;6.13;5.57;;;;;;;14.00;100.00;101371.47;4990704;28;20185;-46
2023/09/17 02:15:49;;;;;;;6.63;6.13;;;;;;;14.08;100.00;101376.50;4991410;28;20285;-47
2023/09/17 02:18:14;;;;;;;6.70;5.78;;;;;;;14.10;100.00;101371.94;4992042;28;20268;-48
2023/09/17 02:20:40;;;;;;;7.28;6.65;;;;;;;14.07;100.00;101378.34;4990628;28;20300;-47
2023/09/17 02:23:09;;;;;;;7.13;6.43;;;;;;;14.10;100.00;101380.03;5006898;28;20619;-49
2023/09/17 02:25:34;;;;;;;6.05;5.55;;;;;;;14.16;100.00;101383.31;4992204;28;20276;-46
2023/09/17 02:28:01;;;;;;;7.05;6.43;;;;;;;14.10;100.00;101366.56;4992179;28;20208;-47
2023/09/17 02:30:28;;;;;;;7.50;6.85;;;;;;;14.15;100.00;101383.41;4991885;28;20170;-48
2023/09/17 02:32:54;;;;;;;6.18;5.60;;;;;;;14.23;100.00;101378.53;4991947;28;20744;-46
2023/09/17 02:35:19;;;;;;;7.35;6.65;;;;;;;14.23;100.00;101381.22;4991690;28;20205;-48
2023/09/17 02:37:45;;;;;;;5.72;5.22;;;;;;;14.33;100.00;101384.41;4992040;28;20185;-47
2023/09/17 02:40:11;;;;;;;6.97;6.35;;;;;;;14.33;100.00;101376.31;5006653;28;20181;-47
2023/09/17 02:42:37;;;;;;;6.97;6.38;;;;;;;14.29;100.00;101375.56;4991404;28;20205;-46
2023/09/17 02:45:04;;;;;;;7.10;6.50;;;;;;;14.24;100.00;101374.91;4991625;28;20166;-46
2023/09/17 02:47:31;;;;;;;7.43;6.72;;;;;;;14.25;100.00;101370.38;4991518;28;20546;-47
2023/09/17 02:49:57;;;;;;;7.03;6.32;;;;;;;14.30;100.00;101385.41;4991451;28;20177;-47
2023/09/17 02:52:22;;;;;;;7.03;6.43;;;;;;;14.24;100.00;101376.75;4991363;28;20276;-48
2023/09/17 02:54:47;;;;;;;7.72;6.68;;;;;;;14.19;100.00;101369.72;4989842;28;20672;-49
2023/09/17 02:57:13;;;;;;;7.18;6.30;;;;;;;14.21;100.00;101377.72;4991419;28;20177;-47
2023/09/17 02:59:39;;;;;;;8.88;6.60;;;;;;;14.24;100.00;101369.53;4991359;28;20177;-47
2023/09/17 03:02:04;;;;;;;6.32;5.82;;;;;;;14.31;100.00;101368.28;4991010;28;20241;-48
2023/09/17 03:04:30;;;;;;;8.13;6.75;;;;;;;14.35;100.00;101363.66;4987260;28;20174;-45
2023/09/17 03:06:56;;;;;;;6.15;5.55;;;;;;;14.38;100.00;101367.06;4971962;28;20177;-45
2023/09/17 03:09:22;;;;;;;7.50;6.88;;;;;;;14.31;100.00;101373.69;4971965;28;20178;-45
2023/09/17 03:11:49;;;;;;;7.22;6.55;;;;;;;14.35;100.00;101371.72;4970492;28;20198;-45
2023/09/17 03:14:15;;;;;;;7.43;6.72;;;;;;;14.26;100.00;101369.47;4971819;28;20559;-45
2023/09/17 03:16:40;;;;;;;7.25;6.65;;;;;;;14.25;100.00;101375.78;4970484;28;20221;-43
2023/09/17 03:19:06;;;;;;;7.10;6.43;;;;;;;14.35;100.00;101378.00;4971917;28;20553;-45
2023/09/17 03:21:34;;;;;;;6.65;5.85;;;;;;;14.34;100.00;101384.34;4971758;28;20247;-44
2023/09/17 03:23:59;;;;;;;7.55;6.70;;;;;;;14.36;100.00;101381.56;4970335;28;20197;-44
2023/09/17 03:26:25;;;;;;;6.47;5.93;;;;;;;14.43;100.00;101383.91;4986525;28;20667;-43
2023/09/17 03:28:50;;;;;;;6.90;6.30;;;;;;;14.32;100.00;101388.94;4975724;28;20276;-47
2023/09/17 03:31:16;;;;;;;6.65;6.15;;;;;;;14.38;100.00;101385.94;4975754;28;20290;-43
2023/09/17 03:33:44;;;;;;;7.28;6.57;;;;;;;14.35;100.00;101382.50;4974298;28;20554;-44
2023/09/17 03:36:09;;;;;;;7.22;6.63;;;;;;;14.20;100.00;101375.97;4974243;28;20237;-43
2023/09/17 03:38:35;;;;;;;7.28;6.68;;;;;;;14.17;100.00;101376.13;4974154;28;20190;-47
2023/09/17 03:41:01;;;;;;;7.38;6.70;;;;;;;14.16;100.00;101377.06;4975411;28;20264;-43
2023/09/17 03:43:29;;;;;;;7.00;6.40;;;;;;;14.13;100.00;101379.91;4974187;28;20191;-44
2023/09/17 03:45:55;;;;;;;7.63;6.95;;;;;;;14.20;100.00;101370.59;4975435;28;20184;-44
2023/09/17 03:48:21;;;;;;;7.53;6.82;;;;;;;14.26;100.00;101374.84;4974148;28;20186;-43
2023/09/17 03:50:47;;;;;;;8.15;7.03;;;;;;;14.13;100.00;101369.13;4973931;28;20221;-45
2023/09/17 03:53:13;;;;;;;7.15;6.45;;;;;;;14.20;100.00;101375.97;4974013;28;20253;-45
2023/09/17 03:55:39;;;;;;;8.40;7.60;;;;;;;14.14;100.00;101368.16;4975216;28;20209;-46
2023/09/17 03:58:06;;;;;;;6.97;6.38;;;;;;;14.09;100.00;101359.44;4975286;28;20253;-46
2023/09/17 04:00:38;;;;;;;6.30;5.72;;;;;;;14.10;100.00;101361.16;4973242;28;20571;-45
2023/09/17 04:03:06;;;;;;;7.78;7.07;;;;;;;14.04;100.00;101365.03;4989981;28;20178;-44
2023/09/17 04:05:31;;;;;;;6.95;5.95;;;;;;;14.14;100.00;101357.38;4973858;28;20502;-44
2023/09/17 04:07:57;;;;;;;7.30;6.65;;;;;;;13.96;100.00;101369.88;4974454;28;20213;-43
2023/09/17 04:10:24;;;;;;;9.38;6.90;;;;;;;14.01;100.00;101379.50;4975029;28;20158;-45
2023/09/17 04:12:49;;;;;;;7.57;6.80;;;;;;;13.92;100.00;101373.63;4973920;28;20319;-44
2023/09/17 04:15:19;;;;;;;6.93;6.32;;;;;;;13.88;100.00;101372.88;4973495;28;20692;-44
2023/09/17 04:17:49;;;;;;;6.53;5.93;;;;;;;13.95;100.00;101368.09;4973532;28;20197;-46
2023/09/17 04:20:18;;;;;;;6.25;5.75;;;;;;;13.98;100.00;101382.31;4974688;28;20250;-44
2023/09/17 04:22:49;;;;;;;7.22;6.63;;;;;;;13.88;100.00;101386.34;4973233;28;20170;-46
2023/09/17 04:25:17;;;;;;;7.68;6.97;;;;;;;13.73;100.00;101385.22;4973545;28;20200;-44
2023/09/17 04:27:44;;;;;;;6.35;5.82;;;;;;;13.89;100.00;101385.41;4973458;28;20536;-45
2023/09/17 04:30:15;;;;;;;7.68;7.00;;;;;;;13.89;100.00;101385.41;4974713;28;20171;-45
2023/09/17 04:32:42;;;;;;;8.38;6.15;;;;;;;13.96;100.00;101397.66;4974715;28;20170;-46
2023/09/17 04:35:10;;;;;;;7.00;6.40;;;;;;;13.95;100.00;101395.03;4989278;28;20209;-48
2023/09/17 04:37:39;;;;;;;7.30;6.60;;;;;;;13.91;100.00;101396.13;4973097;28;20178;-44
2023/09/17 04:40:09;;;;;;;6.55;6.03;;;;;;;13.91;100.00;101397.00;4988862;28;20511;-46
2023/09/17 04:42:36;;;;;;;8.30;7.50;;;;;;;13.80;100.00;101397.47;4973063;28;20288;-45
2023/09/17 04:45:05;;;;;;;7.30;6.68;;;;;;;13.89;100.00;101395.31;4972978;28;20713;-47
2023/09/17 04:47:34;;;;;;;7.40;6.57;;;;;;;13.88;100.00;101391.72;4972697;28;20185;-48
2023/09/17 04:50:00;;;;;;;7.28;6.63;;;;;;;13.88;100.00;101390.88;4972770;28;20244;-44
2023/09/17 04:52:26;;;;;;;7.38;6.78;;;;;;;13.97;100.00;101393.16;4972595;28;20186;-49
2023/09/17 04:54:51;;;;;;;7.68;6.95;;;;;;;13.91;100.00;101397.00;4973762;28;20248;-47
2023/09/17 04:57:17;;;;;;;8.63;7.93;;;;;;;13.72;100.00;101399.59;4972618;28;20192;-47
2023/09/17 04:59:43;;;;;;;7.20;6.50;;;;;;;13.71;100.00;101405.03;4972770;28;20186;-45
2023/09/17 05:02:08;;;;;;;8.00;7.20;;;;;;;13.60;100.00;101409.06;4988631;28;20284;-48
2023/09/17 05:04:34;;;;;;;7.88;7.07;;;;;;;13.58;100.00;101404.69;4972551;28;20268;-48
2023/09/17 05:06:59;;;;;;;7.55;6.85;;;;;;;13.66;100.00;101412.44;4973138;28;20170;-46
2023/09/17 05:09:26;;;;;;;6.97;6.38;;;;;;;13.70;100.00;101417.63;5008228;28;20219;-45
2023/09/17 05:11:52;;;;;;;7.88;7.18;;;;;;;13.73;100.00;101400.47;4991773;28;20520;-44
2023/09/17 05:14:17;;;;;;;8.38;7.68;;;;;;;13.64;100.00;101414.31;4993292;28;20173;-45
2023/09/17 05:16:43;;;;;;;7.45;6.75;;;;;;;13.60;100.00;101422.53;5007972;28;20210;-45
2023/09/17 05:19:09;;;;;;;7.03;6.43;;;;;;;13.69;100.00;101429.38;4975537;28;20626;-48
2023/09/17 05:21:36;;;;;;;8.70;7.90;;;;;;;13.67;100.00;101424.97;4991475;28;20200;-45
2023/09/17 05:24:01;;;;;;;9.23;8.30;;;;;;;13.67;100.00;101430.38;4992788;28;20186;-47
2023/09/17 05:26:27;;;;;;;6.82;6.30;;;;;;;13.75;100.00;101431.81;5008145;28;20185;-45
2023/09/17 05:28:54;;;;;;;9.15;8.25;;;;;;;13.65;100.00;101440.31;4991464;28;20209;-47
2023/09/17 05:31:19;;;;;;;8.43;7.72;;;;;;;13.81;100.00;101436.03;5007807;28;20769;-47
2023/09/17 05:33:45;;;;;;;8.65;7.93;;;;;;;13.74;100.00;101440.81;4991336;28;20652;-46
2023/09/17 05:36:11;;;;;;;9.35;8.55;;;;;;;13.78;100.00;101439.75;4991550;28;20288;-46
2023/09/17 05:38:38;;;;;;;9.82;9.00;;;;;;;13.75;100.00;101436.28;4991609;28;20244;-45
2023/09/17 05:41:03;;;;;;;9.57;8.70;;;;;;;13.75;100.00;101447.06;4991488;28;20225;-46
2023/09/17 05:43:29;;;;;;;10.00;8.98;;;;;;;13.89;100.00;101452.75;5007727;28;20268;-47
2023/09/17 05:45:58;;;;;;;9.98;9.07;;;;;;;14.10;100.00;101450.09;5007568;28;20177;-48
2023/09/17 05:48:29;;;;;;;10.15;9.25;;;;;;;14.33;100.00;101451.78;4991619;28;20165;-48
2023/09/17 05:50:55;;;;;;;9.85;9.05;;;;;;;14.63;100.00;101450.47;4991752;28;20368;-44
2023/09/17 05:53:20;;;;;;;11.32;10.32;;;;;;;14.82;100.00;101453.19;4991401;28;20177;-46
2023/09/17 05:55:46;;;;;;;10.43;9.45;;;;;;;14.99;100.00;101454.22;4988858;23;20706;-41
2023/09/17 05:58:11;;;;;;;9.85;9.00;;;;;;;15.11;100.00;101450.97;4991580;28;20213;-41
2023/09/17 06:00:37;;;;;;;10.38;9.43;;;;;;;15.49;100.00;101453.63;4992107;28;20584;-42
2023/09/17 06:03:03;;;;;;;11.07;10.07;;;;;;;15.79;100.00;101453.97;4964219;28;20206;-41
2023/09/17 06:05:28;;;;;;;10.15;9.25;;;;;;;15.89;100.00;101454.38;4973020;28;20321;-42
2023/09/17 06:07:54;;;;;;;11.30;10.20;;;;;;;16.17;100.00;101456.56;4986494;28;20194;-44
2023/09/17 06:10:21;;;;;;;9.82;8.90;;;;;;;16.42;100.00;101447.16;4974376;28;20186;-41
2023/09/17 06:12:47;;;;;;;8.38;7.68;;;;;;;16.57;100.00;101448.16;4975293;28;20182;-42
2023/09/17 06:15:12;;;;;;;9.23;8.43;;;;;;;16.60;100.00;101443.47;4968548;28;20205;-41
2023/09/17 06:17:41;;;;;;;7.75;7.13;;;;;;;17.03;100.00;101440.28;4976105;28;20182;-43
2023/09/17 06:20:08;;;;;;;7.90;7.20;;;;;;;16.89;100.00;101450.03;4971361;28;20195;-41
2023/09/17 06:22:34;;;;;;;7.70;7.05;;;;;;;17.04;100.00;101436.63;4972923;28;20299;-43
2023/09/17 06:25:00;;;;;;;10.57;7.20;;;;;;;17.09;100.00;101440.81;4972090;28;20205;-41
2023/09/17 06:27:29;;;;;;;8.35;7.65;;;;;;;17.19;100.00;101451.16;4982716;28;20209;-39
2023/09/17 06:29:55;;;;;;;8.55;7.78;;;;;;;17.37;100.00;101443.81;4976662;28;20266;-42
2023/09/17 06:32:23;;;;;;;8.25;7.45;;;;;;;17.62;100.00;101454.09;4973076;28;20646;-41
2023/09/17 06:34:49;;;;;;;9.57;7.80;;;;;;;17.57;100.00;101451.66;4989269;28;20221;-38
2023/09/17 06:37:15;;;;;;;9.23;8.18;;;;;;;17.61;100.00;101450.53;4984587;28;20213;-41
2023/09/17 06:39:42;;;;;;;11.02;8.95;;;;;;;17.66;100.00;101452.97;4977268;28;20559;-42
2023/09/17 06:42:07;;;;;;;9.85;8.43;;;;;;;17.84;100.00;101460.06;4990479;28;20213;-42
2023/09/17 06:44:33;;;;;;;9.75;8.80;;;;;;;17.79;100.00;101455.84;4975630;28;20658;-41
2023/09/17 06:46:58;;;;;;;10.13;9.13;;;;;;;17.95;100.00;101463.97;4974270;28;20189;-42
2023/09/17 06:49:24;;;;;;;9.98;8.98;;;;;;;18.06;100.00;101458.78;4975733;28;20277;-43
2023/09/17 06:51:52;;;;;;;9.65;8.77;;;;;;;18.21;100.00;101451.56;4968759;28;20214;-44
2023/09/17 06:54:17;;;;;;;11.20;9.93;;;;;;;18.27;100.00;101445.78;4968751;28;20575;-44
2023/09/17 06:56:43;;;;;;;11.38;10.27;;;;;;;17.78;100.00;101445.97;4968622;28;20198;-45
2023/09/17 06:59:08;;;;;;;11.25;9.98;;;;;;;18.05;100.00;101436.22;4972861;28;20194;-44
2023/09/17 07:01:35;;;;;;;11.45;10.32;;;;;;;18.35;100.00;101432.63;4971014;28;20212;-44
2023/09/17 07:04:00;;;;;;;10.88;9.88;;;;;;;18.51;100.00;101433.41;4973425;28;20707;-43
2023/09/17 07:06:25;;;;;;;11.30;10.30;;;;;;;18.36;100.00;101436.22;4968081;28;20193;-43
2023/09/17 07:08:53;;;;;;;12.23;10.45;;;;;;;18.66;100.00;101437.03;4974222;28;20221;-43
2023/09/17 07:11:18;;;;;;;11.05;9.95;;;;;;;18.73;100.00;101440.22;4973037;28;20216;-45
2023/09/17 07:13:44;;;;;;;11.35;10.30;;;;;;;18.68;100.00;101434.22;4973624;28;20204;-41
2023/09/17 07:16:10;;;;;;;11.20;10.20;;;;;;;19.01;100.00;101436.66;4971819;28;20645;-44
2023/09/17 07:18:36;;;;;;;11.27;10.00;;;;;;;19.59;99.09;101428.38;4971785;28;20265;-44
2023/09/17 07:21:01;;;;;;;11.70;10.57;;;;;;;19.35;96.27;101424.50;4973589;28;20225;-44
2023/09/17 07:23:27;;;;;;;11.95;10.75;;;;;;;19.13;96.34;101413.25;4966757;28;20209;-45
2023/09/17 07:25:52;;;;;;;12.15;10.90;;;;;;;19.42;96.05;101424.09;4970647;28;20656;-45
2023/09/17 07:28:19;;;;;;;11.13;10.13;;;;;;;19.51;95.71;101418.91;4970596;28;20269;-46
2023/09/17 07:30:44;;;;;;;9.73;8.82;;;;;;;19.99;95.00;101423.91;4970541;28;20194;-45
2023/09/17 07:33:09;;;;;;;10.15;9.25;;;;;;;20.22;93.47;101415.97;4970249;28;20676;-44
2023/09/17 07:35:38;;;;;;;10.75;8.90;;;;;;;20.70;91.06;101408.09;4974272;28;20216;-45
2023/09/17 07:38:04;;;;;;;7.80;7.10;;;;;;;21.08;88.40;101407.16;4969790;28;20734;-43
2023/09/17 07:40:30;;;;;;;10.70;6.68;;;;;;;21.13;85.70;101407.69;4971192;28;20201;-46
2023/09/17 07:42:55;;;;;;;7.05;6.28;;;;;;;21.34;84.14;101391.59;4963250;28;20221;-43
2023/09/17 07:45:21;;;;;;;7.47;6.78;;;;;;;21.48;83.04;101393.34;4975670;28;20217;-43
2023/09/17 07:47:46;;;;;;;6.18;5.68;;;;;;;21.45;82.00;101402.63;4971620;28;20185;-43
2023/09/17 07:50:12;;;;;;;6.55;5.95;;;;;;;21.83;82.08;101400.69;4966496;28;20249;-45
2023/09/17 07:52:40;;;;;;;6.65;6.03;;;;;;;21.95;80.41;101394.28;4970640;28;20205;-44
2023/09/17 07:55:07;;;;;;;5.65;5.05;;;;;;;22.15;78.28;101377.25;4969579;28;20580;-45
2023/09/17 07:57:34;;;;;;;5.75;5.18;;;;;;;22.33;77.14;101376.81;4970494;28;20643;-44
2023/09/17 08:00:00;;;;;;;5.68;5.05;;;;;;;22.32;75.59;101364.13;4971048;28;20182;-43
2023/09/17 08:02:25;;;;;;;4.88;4.47;;;;;;;22.12;74.99;101366.53;4974198;28;20225;-45
2023/09/17 08:04:51;;;;;;;5.18;4.68;;;;;;;22.43;74.06;101366.88;4967805;28;20273;-44
2023/09/17 08:07:17;;;;;;;5.38;4.88;;;;;;;22.41;72.93;101360.66;4969966;28;20189;-45
2023/09/17 08:09:43;;;;;;;5.18;4.68;;;;;;;22.51;72.88;101361.69;4972758;28;20203;-44
2023/09/17 08:12:10;;;;;;;7.93;7.22;;;;;;;21.92;75.73;101380.88;4966573;28;20202;-46
2023/09/17 08:14:36;;;;;;;8.57;7.88;;;;;;;20.99;78.04;101397.81;4978226;28;20225;-45
2023/09/17 08:17:04;;;;;;;12.77;7.90;;;;;;;21.31;78.41;101403.59;4967497;28;20273;-45
2023/09/17 08:19:30;;;;;;;8.75;8.05;;;;;;;21.25;79.48;101414.09;4955040;28;20278;-44
2023/09/17 08:21:56;;;;;;;9.18;8.27;;;;;;;21.62;80.44;101412.25;4972763;28;20220;-42
2023/09/17 08:24:23;;;;;;;9.20;7.85;;;;;;;21.68;79.54;101411.78;4974656;28;20182;-43
2023/09/17 08:26:52;;;;;;;10.13;9.13;;;;;;;21.38;79.56;101418.53;4971227;28;20243;-43
2023/09/17 08:29:20;;;;;;;9.73;8.82;;;;;;;20.66;79.84;101410.19;4982104;28;20651;-44
2023/09/17 08:31:46;;;;;;;10.23;9.07;;;;;;;20.18;82.84;101426.19;4974691;28;20268;-43
2023/09/17 08:34:11;;;;;;;9.63;8.82;;;;;;;20.40;82.57;101431.03;4976416;28;20199;-44
2023/09/17 08:36:37;;;;;;;9.27;8.48;;;;;;;21.14;82.87;101432.13;4970133;28;20546;-43
2023/09/17 08:39:06;;;;;;;8.60;7.85;;;;;;;20.94;82.12;101428.09;4977057;28;20724;-43
2023/09/17 08:41:33;;;;;;;9.35;8.40;;;;;;;20.80;82.05;101419.22;4978888;28;20695;-45
2023/09/17 08:43:58;;;;;;;9.02;8.23;;;;;;;21.27;81.37;101423.03;4974145;28;20184;-43
2023/09/17 08:46:24;;;;;;;8.07;7.35;;;;;;;21.65;80.30;101416.63;4977116;28;20644;-44
2023/09/17 08:48:50;;;;;;;8.25;7.55;;;;;;;21.62;79.30;101408.66;4975787;28;20636;-43
2023/09/17 08:51:18;;;;;;;10.00;7.63;;;;;;;21.28;80.01;101403.84;4973116;28;20291;-44
2023/09/17 08:54:09;;;;;;;8.10;7.30;;;;;;;21.78;79.26;101411.97;4974623;28;20186;-43
2023/09/17 08:56:40;;;;;;;9.73;7.63;;;;;;;21.67;78.40;101407.31;4978258;28;20284;-43
2023/09/17 08:59:30;;;;;;;7.88;7.03;;;;;;;21.67;79.61;101409.16;4980247;28;20715;-44
2023/09/17 09:02:01;;;;;;;7.45;6.75;;;;;;;21.43;78.98;101407.31;4974675;28;20300;-44
2023/09/17 09:04:27;;;;;;;9.45;7.03;;;;;;;21.80;79.03;101410.00;4974917;28;20388;-44
2023/09/17 09:06:54;;;;;;;8.65;7.38;;;;;;;21.70;79.12;101411.66;4993165;28;20382;-41
2023/09/17 09:09:23;;;;;;;8.50;7.70;;;;;;;21.37;80.36;101421.38;4974988;28;20197;-41
2023/09/17 09:11:49;;;;;;;9.55;8.65;;;;;;;21.84;81.03;101421.53;4974161;28;20197;-42
2023/09/17 09:14:16;;;;;;;9.85;8.82;;;;;;;22.15;81.55;101423.63;4975798;28;20644;-41
2023/09/17 09:16:41;;;;;;;10.85;9.05;;;;;;;22.49;81.21;101412.81;4979900;28;20252;-41
2023/09/17 09:19:07;;;;;;;8.80;7.97;;;;;;;22.51;80.83;101419.03;4970545;28;20606;-42
2023/09/17 09:21:33;;;;;;;7.13;6.43;;;;;;;23.09;78.09;101390.75;4969937;28;20212;-41
2023/09/17 09:23:59;;;;;;;5.10;4.57;;;;;;;23.06;75.07;101377.34;4974365;28;20173;-41
2023/09/17 09:26:35;;;;;;;4.65;4.22;;;;;;;23.32;69.14;101334.16;4975396;28;20252;-41
2023/09/17 09:29:01;;;;;;;4.80;3.65;;;;;;;23.67;67.34;101322.97;4970545;28;20284;-41
2023/09/17 09:31:29;;;;;;;4.45;4.05;;;;;;;23.96;65.45;101304.03;4976933;28;20284;-42
2023/09/17 09:33:59;;;;;;;4.55;3.97;;;;;;;24.02;63.56;101284.34;4975353;28;20182;-40
2023/09/17 09:36:29;;;;;;;4.45;3.85;;;;;;;23.79;61.91;101280.91;4973036;28;20260;-41
2023/09/17 09:38:56;;;;;;;3.63;3.33;;;;;;;23.92;61.85;101274.34;4978654;28;20557;-45
2023/09/17 09:41:23;;;;;;;4.10;3.70;;;;;;;24.12;61.44;101275.31;4979862;28;20699;-44
2023/09/17 09:43:50;;;;;;;3.80;3.50;;;;;;;24.37;61.30;101280.34;4976093;28;20268;-44
2023/09/17 09:46:15;;;;;;;4.13;3.60;;;;;;;24.37;60.47;101279.50;4978963;28;20178;-44
2023/09/17 09:48:41;;;;;;;4.03;3.72;;;;;;;24.16;59.70;101268.56;4977342;28;20192;-43
2023/09/17 09:51:07;;;;;;;3.97;3.58;;;;;;;23.93;60.01;101256.94;4973816;28;20282;-43
2023/09/17 09:53:32;;;;;;;3.95;3.50;;;;;;;24.11;59.40;101251.69;4973172;28;20185;-44
2023/09/17 09:55:58;;;;;;;5.07;3.83;;;;;;;23.94;60.73;101264.13;4974687;28;20229;-42
2023/09/17 09:58:24;;;;;;;3.97;3.30;;;;;;;24.47;60.24;101272.19;4976861;28;20201;-45
2023/09/17 10:00:50;;;;;;;5.28;3.67;;;;;;;24.39;59.29;101252.84;4969680;28;20230;-45
2023/09/17 10:03:20;;;;;;;3.40;3.10;;;;;;;24.32;59.01;101252.50;4976812;28;20279;-45
2023/09/17 10:05:46;;;;;;;3.55;3.25;;;;;;;24.90;57.81;101245.50;4977041;28;20544;-43
2023/09/17 10:08:15;;;;;;;4.65;3.60;;;;;;;24.37;57.78;101238.41;4973829;28;20177;-44
2023/09/17 10:10:41;;;;;;;3.53;3.22;;;;;;;24.38;57.16;101226.44;4972669;28;20201;-43
2023/09/17 10:13:08;;;;;;;3.45;2.95;;;;;;;24.25;58.15;101237.66;4979071;28;20540;-44
2023/09/17 10:15:40;;;;;;;4.10;3.70;;;;;;;23.73;58.71;101240.34;4980218;28;20704;-43
2023/09/17 10:18:10;;;;;;;5.03;3.60;;;;;;;23.77;59.09;101250.06;4970992;28;20553;-43
2023/09/17 10:20:37;;;;;;;3.78;3.45;;;;;;;23.94;58.90;101251.34;4977066;28;20209;-43
2023/09/17 10:23:05;;;;;;;5.97;3.45;;;;;;;24.03;59.37;101258.72;4974091;28;20192;-42
2023/09/17 10:25:31;;;;;;;4.72;3.42;;;;;;;24.29;59.42;101249.19;4972597;28;20238;-44
2023/09/17 10:27:58;;;;;;;4.07;3.78;;;;;;;24.12;58.50;101254.31;4975968;28;20210;-44
2023/09/17 10:30:24;;;;;;;4.18;3.60;;;;;;;24.02;57.96;101235.06;4975432;28;20283;-46
2023/09/17 10:32:51;;;;;;;3.13;2.92;;;;;;;24.15;57.52;101231.25;4973239;28;20197;-44
2023/09/17 10:35:16;;;;;;;3.50;3.30;;;;;;;24.21;57.63;101234.31;4970274;28;20212;-45
2023/09/17 10:37:43;;;;;;;3.78;3.47;;;;;;;24.11;58.31;101249.81;4973682;28;20288;-44
2023/09/17 10:40:10;;;;;;;3.60;3.30;;;;;;;24.22;58.84;101257.06;4979366;28;20555;-42
2023/09/17 10:42:39;;;;;;;3.60;3.30;;;;;;;24.39;58.53;101253.69;4969501;28;20217;-44
2023/09/17 10:45:09;;;;;;;3.50;3.20;;;;;;;24.51;57.70;101250.88;4972983;28;20264;-45
2023/09/17 10:47:37;;;;;;;4.80;3.42;;;;;;;24.43;57.68;101243.34;4974307;28;20184;-44
2023/09/17 10:50:03;;;;;;;3.60;3.30;;;;;;;24.09;58.35;101254.56;4974483;28;20243;-45
2023/09/17 10:52:32;;;;;;;3.65;3.35;;;;;;;24.19;57.99;101251.88;4971591;28;20672;-43
2023/09/17 10:54:59;;;;;;;3.35;3.05;;;;;;;23.98;58.09;101265.59;4977321;28;20184;-44
2023/09/17 10:57:37;;;;;;;3.55;3.25;;;;;;;23.94;57.98;101250.44;4971705;28;20683;-45
2023/09/17 11:00:05;;;;;;;4.22;3.50;;;;;;;24.12;58.77;101267.09;4974434;28;20201;-45
2023/09/17 11:02:35;;;;;;;6.10;3.83;;;;;;;24.05;58.78;101266.78;4973347;28;20217;-46
2023/09/17 11:05:04;;;;;;;5.03;3.50;;;;;;;24.18;59.96;101275.66;4970181;28;20186;-46
2023/09/17 11:07:31;;;;;;;3.75;3.45;;;;;;;23.85;59.60;101279.47;4969711;28;20820;-45
2023/09/17 11:09:58;;;;;;;3.80;3.50;;;;;;;23.71;59.62;101285.28;4972607;28;20185;-46
2023/09/17 11:12:24;;;;;;;4.30;3.60;;;;;;;23.43;59.92;101277.56;4972556;28;20626;-46
2023/09/17 11:14:51;;;;;;;4.75;3.70;;;;;;;23.18;60.79;101286.13;4974019;28;20173;-45
2023/09/17 11:17:18;;;;;;;4.57;3.35;;;;;;;23.16;61.04;101293.59;4971665;28;20189;-44